Time;durP1;ratioP1;P1;durP2;ratioP2;P2;SDS_P1;SDS_P2;PMS_P1;PMS_P2;Temp;Humidity;BMP_temperature;BMP_pressure;BME280_temperature;BME280_humidity;BME280_pressure;Samples;Min_cycle;Max_cycle;Signal;HPM_P1;HPM_P2
2021/09/15 00:00:48;;;;;;;9.55;1.25;;;;;;;9.07;58.32;98955.69;6138499;23;20020;-82
2021/09/15 00:03:23;;;;;;;4.93;1.48;;;;;;;9.02;58.02;98957.00;6139111;23;20020;-84
2021/09/15 00:05:49;;;;;;;3.58;1.08;;;;;;;9.06;57.87;98958.44;6165049;23;20442;-84
2021/09/15 00:08:16;;;;;;;3.67;1.40;;;;;;;9.05;58.17;98962.03;6167106;23;20020;-79
2021/09/15 00:10:42;;;;;;;3.22;1.05;;;;;;;9.07;58.25;98960.94;6141859;23;20397;-81
2021/09/15 00:13:08;;;;;;;3.10;1.50;;;;;;;9.15;58.18;98962.13;6140326;23;20052;-82
2021/09/15 00:15:34;;;;;;;4.22;1.80;;;;;;;9.15;57.86;98957.66;6142117;23;20355;-81
2021/09/15 00:17:59;;;;;;;6.13;1.33;;;;;;;9.22;57.89;98952.72;6189925;23;20019;-83
2021/09/15 00:20:25;;;;;;;6.85;1.95;;;;;;;9.27;57.77;98957.63;6140587;23;20399;-82
2021/09/15 00:22:53;;;;;;;8.07;1.60;;;;;;;9.25;57.87;98960.38;6190812;23;20072;-85
2021/09/15 00:25:19;;;;;;;5.10;1.40;;;;;;;9.30;57.69;98965.28;6165615;23;20020;-81
2021/09/15 00:27:44;;;;;;;3.97;1.63;;;;;;;9.30;57.83;98960.00;6140223;23;20070;-80
2021/09/15 00:30:11;;;;;;;4.25;1.70;;;;;;;9.17;57.98;98971.59;6140157;23;20031;-84
2021/09/15 00:32:37;;;;;;;3.72;1.50;;;;;;;9.20;58.03;98971.31;6190328;23;20466;-84
2021/09/15 00:35:06;;;;;;;4.85;1.50;;;;;;;9.26;57.95;98966.50;6140073;23;20051;-80
2021/09/15 00:37:32;;;;;;;4.43;1.30;;;;;;;9.28;58.01;98961.94;6140344;23;20324;-81
2021/09/15 00:39:57;;;;;;;4.50;1.42;;;;;;;9.27;58.05;98970.81;6189718;23;20027;-81
2021/09/15 00:42:23;;;;;;;5.63;1.45;;;;;;;9.31;57.95;98969.56;6215911;23;20070;-81
2021/09/15 00:44:49;;;;;;;5.65;1.27;;;;;;;9.34;57.91;98972.81;6139741;23;20023;-81
2021/09/15 00:47:15;;;;;;;5.45;1.10;;;;;;;9.36;57.91;98977.97;6188426;23;20394;-82
2021/09/15 00:49:42;;;;;;;3.80;1.67;;;;;;;9.28;58.11;98967.22;6141342;23;20028;-82
2021/09/15 00:52:09;;;;;;;12.38;1.85;;;;;;;9.29;57.88;98968.88;6215174;23;20032;-81
2021/09/15 00:54:35;;;;;;;3.83;0.95;;;;;;;9.26;57.98;98974.41;6163922;23;20676;-79
2021/09/15 00:57:01;;;;;;;4.93;1.48;;;;;;;9.26;58.24;98971.78;6188250;23;20065;-79
2021/09/15 00:59:27;;;;;;;5.03;1.23;;;;;;;9.32;57.90;98968.63;6163822;23;20021;-79
2021/09/15 01:01:53;;;;;;;4.13;0.98;;;;;;;9.28;58.02;98973.31;6164181;23;20026;-82
2021/09/15 01:04:20;;;;;;;4.35;1.35;;;;;;;9.31;58.41;98972.22;6115430;23;20143;-81
2021/09/15 01:06:51;;;;;;;2.45;1.20;;;;;;;9.29;58.13;98976.81;6140033;23;20394;-81
2021/09/15 01:09:18;;;;;;;4.05;1.60;;;;;;;9.33;58.15;98981.72;6188916;23;20130;-81
2021/09/15 01:11:45;;;;;;;3.38;1.25;;;;;;;9.43;58.20;98987.03;6140359;23;20021;-81
2021/09/15 01:14:23;;;;;;;;;;;;;;;9.36;58.27;98980.63;6190820;23;20017;-83
2021/09/15 01:17:09;;;;;;;9.20;1.38;;;;;;;9.35;58.41;98989.50;6124356;23;19919;-81
2021/09/15 01:20:10;;;;;;;4.70;1.10;;;;;;;9.32;58.20;98982.66;6141548;23;20099;-80
2021/09/15 01:23:15;;;;;;;4.88;1.23;;;;;;;9.35;58.15;98989.50;6200908;23;20016;-81
2021/09/15 01:26:00;;;;;;;7.97;1.60;;;;;;;9.37;58.20;98987.53;6192522;23;20054;-84
2021/09/15 01:28:56;;;;;;;4.43;1.48;;;;;;;9.31;58.67;98985.41;6057247;23;20122;-79
2021/09/15 01:31:23;;;;;;;7.43;1.20;;;;;;;9.26;58.25;98988.44;6046110;23;20018;-82
2021/09/15 01:33:49;;;;;;;3.78;1.00;;;;;;;9.22;58.84;98987.88;6046433;23;20285;-82
2021/09/15 01:36:16;;;;;;;3.53;1.08;;;;;;;9.29;58.93;98979.44;6093277;23;20018;-79
2021/09/15 01:38:44;;;;;;;3.22;1.10;;;;;;;9.37;58.73;98995.47;6093852;23;20018;-82
2021/09/15 01:41:10;;;;;;;2.75;1.00;;;;;;;9.45;58.67;98995.66;6092330;23;20089;-78
2021/09/15 01:43:36;;;;;;;4.32;1.38;;;;;;;9.37;58.73;98995.47;6045673;23;20025;-82
2021/09/15 01:46:02;;;;;;;5.45;1.10;;;;;;;9.34;58.70;98993.91;6093046;23;20029;-80
2021/09/15 01:48:31;;;;;;;4.13;1.50;;;;;;;9.30;58.78;98991.69;6092318;23;20054;-81
2021/09/15 01:50:57;;;;;;;4.03;1.10;;;;;;;9.29;59.06;98998.75;6092692;23;20030;-79
2021/09/15 01:53:29;;;;;;;3.35;1.40;;;;;;;9.25;59.00;98989.41;6093487;23;20097;-83
2021/09/15 01:55:56;;;;;;;4.72;1.48;;;;;;;9.34;59.02;98987.81;6093588;23;20465;-79
2021/09/15 01:58:46;;;;;;;4.22;0.98;;;;;;;9.29;59.00;98984.72;6045368;23;20022;-80
2021/09/15 02:01:49;;;;;;;3.97;1.52;;;;;;;9.29;59.26;98992.63;6092975;23;20022;-81
2021/09/15 02:04:42;;;;;;;4.80;1.27;;;;;;;9.27;59.35;98991.91;6098076;23;20060;-80
2021/09/15 02:07:28;;;;;;;3.85;1.23;;;;;;;9.30;59.01;98996.97;6143405;23;20023;-81
2021/09/15 02:10:25;;;;;;;7.63;1.38;;;;;;;9.23;59.52;98994.81;6197199;23;20461;-79
2021/09/15 02:12:53;;;;;;;3.72;1.10;;;;;;;9.19;59.57;98990.75;6139904;23;20025;-82
2021/09/15 02:15:20;;;;;;;6.65;1.27;;;;;;;9.26;59.65;98995.50;6138511;23;20514;-80
2021/09/15 02:17:50;;;;;;;6.03;1.30;;;;;;;9.23;59.25;98997.47;6115455;23;20020;-80
2021/09/15 02:20:41;;;;;;;2.70;1.10;;;;;;;9.19;59.31;98996.03;6187598;23;20016;-80
2021/09/15 02:23:16;;;;;;;4.95;1.15;;;;;;;9.24;59.65;99003.56;6164833;23;20020;-81
2021/09/15 02:25:56;;;;;;;4.97;1.50;;;;;;;9.28;59.56;98998.88;6141729;23;20068;-80
2021/09/15 02:28:33;;;;;;;4.43;1.10;;;;;;;9.41;59.34;99010.09;6118820;23;20537;-82
2021/09/15 02:31:20;;;;;;;3.88;1.55;;;;;;;9.39;59.10;99002.31;6142835;23;20020;-83
2021/09/15 02:35:08;;;;;;;2.33;1.02;;;;;;;9.32;59.51;99002.94;6075891;23;20509;-81
2021/09/15 02:38:20;;;;;;;3.42;1.50;;;;;;;9.41;59.26;99007.47;6094565;23;20025;-80
2021/09/15 02:41:07;;;;;;;5.88;1.58;;;;;;;9.34;59.88;99011.56;6098085;23;20014;-82
2021/09/15 02:43:52;;;;;;;3.60;2.05;;;;;;;9.33;59.82;99016.00;6087145;23;20081;-80
2021/09/15 02:46:41;;;;;;;11.38;2.50;;;;;;;9.37;59.75;99008.66;6082347;23;20074;-82
2021/09/15 02:49:27;;;;;;;10.05;1.60;;;;;;;9.39;60.04;99004.09;6101249;23;20018;-84
2021/09/15 02:52:21;;;;;;;5.47;1.67;;;;;;;9.40;59.50;99013.69;6053265;23;20093;-84
2021/09/15 02:55:13;;;;;;;4.32;1.30;;;;;;;9.36;59.93;99028.13;6095270;23;20028;-83
2021/09/15 02:57:42;;;;;;;3.33;1.20;;;;;;;9.32;60.14;99019.63;6046885;23;20014;-81
2021/09/15 03:09:23;;;;;;;24.83;6.50;;;;;;;9.35;60.39;99018.53;5918940;24;20164;-84
2021/09/15 03:11:51;;;;;;;7.90;1.88;;;;;;;9.35;60.42;99029.06;5911637;24;20070;-86
2021/09/15 03:14:25;;;;;;;4.85;1.40;;;;;;;9.42;60.09;99026.75;5951678;24;20024;-83
2021/09/15 03:16:54;;;;;;;7.88;1.85;;;;;;;9.42;60.08;99030.25;5928616;24;20073;-83
2021/09/15 03:19:21;;;;;;;4.72;1.27;;;;;;;9.42;60.22;99032.03;5951442;24;20020;-84
2021/09/15 03:21:48;;;;;;;5.97;1.55;;;;;;;9.42;60.16;99026.75;5905827;24;20031;-83
2021/09/15 03:24:14;;;;;;;5.18;1.35;;;;;;;9.41;60.17;99027.72;5928061;24;20103;-85
2021/09/15 03:26:45;;;;;;;2.70;1.40;;;;;;;9.47;60.21;99035.97;5951284;24;20077;-83
2021/09/15 03:29:12;;;;;;;5.93;1.50;;;;;;;9.47;60.24;99029.84;5951752;24;20107;-87
2021/09/15 03:31:40;;;;;;;12.15;2.95;;;;;;;9.47;60.22;99029.84;5930124;24;20352;-85
2021/09/15 03:34:06;;;;;;;7.72;1.35;;;;;;;9.43;60.61;99029.25;5921437;24;20468;-86
2021/09/15 03:36:33;;;;;;;5.13;1.30;;;;;;;9.45;60.59;99027.34;5947742;24;20390;-83
2021/09/15 03:38:59;;;;;;;5.20;1.45;;;;;;;9.50;60.58;99030.44;5907111;24;20379;-83
2021/09/15 03:41:27;;;;;;;4.93;1.50;;;;;;;9.59;60.40;99033.28;6052839;23;20101;-85
2021/09/15 03:43:56;;;;;;;4.45;1.58;;;;;;;9.53;60.27;99038.13;6042657;23;20415;-83
2021/09/15 03:46:23;;;;;;;;;;;;;;;9.48;60.56;99039.44;6125217;23;20067;-83
2021/09/15 03:48:49;;;;;;;6.53;1.30;;;;;;;9.55;60.44;99033.53;6108591;23;19912;-84
2021/09/15 03:51:15;;;;;;;23.92;13.50;;;;;;;9.60;60.51;99042.88;6157469;23;20017;-83
2021/09/15 03:53:41;;;;;;;8.80;2.70;;;;;;;9.59;60.04;99049.13;6160994;23;20017;-85
2021/09/15 03:56:07;;;;;;;7.90;1.85;;;;;;;9.59;60.25;99049.13;6158595;23;20076;-86
2021/09/15 03:58:37;;;;;;;3.53;1.35;;;;;;;9.65;60.32;99056.53;6111167;23;20045;-83
2021/09/15 04:01:09;;;;;;;7.10;1.80;;;;;;;9.70;60.22;99051.69;6159746;23;20017;-84
2021/09/15 04:03:50;;;;;;;5.75;1.50;;;;;;;9.66;60.21;99060.84;6088489;23;20014;-84
2021/09/15 04:06:45;;;;;;;4.40;1.42;;;;;;;9.62;60.70;99060.28;6059533;23;20033;-84
2021/09/15 04:09:13;;;;;;;5.20;1.58;;;;;;;9.53;60.41;99061.88;6101637;23;20458;-82
2021/09/15 04:11:51;;;;;;;7.35;1.67;;;;;;;9.49;60.96;99063.06;6077551;23;20017;-83
2021/09/15 04:14:19;;;;;;;3.83;1.42;;;;;;;9.53;60.77;99067.16;6101267;23;20018;-83
2021/09/15 04:16:45;;;;;;;6.32;1.75;;;;;;;9.57;60.56;99072.16;6078383;23;20068;-87
2021/09/15 04:19:12;;;;;;;7.38;2.00;;;;;;;9.60;61.03;99071.94;6077753;23;20400;-81
2021/09/15 04:21:42;;;;;;;13.07;2.58;;;;;;;9.67;60.51;99073.06;6052938;23;20049;-82
2021/09/15 04:32:08;;;;;;;9.35;1.65;;;;;;;9.65;60.70;99077.66;6098950;23;20022;-82
2021/09/15 04:34:35;;;;;;;4.10;1.83;;;;;;;9.64;60.63;99082.09;6098286;23;20017;-82
2021/09/15 04:37:02;;;;;;;;;;;;;;;9.60;61.45;99079.84;6074973;23;20125;-81
2021/09/15 04:39:33;;;;;;;5.18;2.00;;;;;;;9.65;61.81;99085.56;6074866;23;20056;-79
2021/09/15 04:42:02;;;;;;;6.28;2.25;;;;;;;9.57;61.56;99091.50;6102887;23;20021;-82
2021/09/15 04:44:29;;;;;;;7.18;2.42;;;;;;;9.65;61.72;99082.94;6129299;23;20080;-83
2021/09/15 04:46:55;;;;;;;5.20;2.25;;;;;;;9.67;61.43;99088.91;6155157;23;20017;-80
2021/09/15 04:49:23;;;;;;;27.25;17.20;;;;;;;9.59;61.50;99084.28;6106145;23;20013;-81
2021/09/15 04:51:51;;;;;;;9.13;4.47;;;;;;;9.68;61.31;99094.09;6131765;23;20543;-83
2021/09/15 04:54:17;;;;;;;6.75;2.42;;;;;;;9.84;60.76;99096.28;6157237;23;20399;-84
2021/09/15 04:56:52;;;;;;;8.13;2.95;;;;;;;9.84;61.20;99101.56;6154928;23;20036;-86
2021/09/15 04:59:25;;;;;;;5.65;2.03;;;;;;;9.87;60.76;99098.66;6087008;23;20324;-85
2021/09/15 05:02:00;;;;;;;8.75;2.67;;;;;;;9.91;60.91;99106.34;6107726;23;20044;-81
2021/09/15 05:04:28;;;;;;;5.65;1.95;;;;;;;9.99;60.74;99110.03;6130361;23;20100;-83
2021/09/15 05:07:10;;;;;;;7.75;1.75;;;;;;;9.95;60.47;99113.03;6195873;23;20036;-85
2021/09/15 05:09:36;;;;;;;8.52;2.67;;;;;;;9.90;60.97;99120.50;6189638;23;20031;-81
2021/09/15 05:12:02;;;;;;;26.27;5.47;;;;;;;9.91;60.67;99122.19;6116964;23;20012;-81
2021/09/15 05:14:30;;;;;;;13.65;5.80;;;;;;;9.99;60.51;99119.72;6143142;23;20027;-86
2021/09/15 05:16:57;;;;;;;3.97;2.03;;;;;;;10.03;60.57;99121.13;6143660;23;20021;-83
2021/09/15 05:19:24;;;;;;;10.32;2.08;;;;;;;9.96;60.65;99120.84;6142297;23;20103;-82
2021/09/15 05:21:52;;;;;;;9.63;2.85;;;;;;;10.02;60.60;99124.78;6144640;23;20414;-84
2021/09/15 05:24:20;;;;;;;8.45;2.15;;;;;;;10.08;60.32;99126.03;6139833;23;20016;-84
2021/09/15 05:26:47;;;;;;;4.00;2.00;;;;;;;10.13;60.34;99129.13;6141109;23;20019;-82
2021/09/15 05:29:13;;;;;;;15.88;3.15;;;;;;;10.11;60.39;99126.63;6141078;23;20340;-81
2021/09/15 05:31:39;;;;;;;8.88;2.10;;;;;;;10.18;60.42;99124.28;6168033;23;20079;-83
2021/09/15 05:34:06;;;;;;;9.23;2.20;;;;;;;10.25;60.09;99127.28;6142659;23;20343;-82
2021/09/15 05:36:36;;;;;;;6.95;2.35;;;;;;;10.24;60.24;99133.53;6117001;23;20047;-86
2021/09/15 05:39:10;;;;;;;;;;;;;;;10.24;60.07;99138.81;6109374;23;20428;-83
2021/09/15 05:41:40;;;;;;;7.30;2.28;;;;;;;10.25;59.86;99132.56;6105303;23;19939;-85
2021/09/15 05:44:06;;;;;;;;;;;;;;;10.19;59.80;99132.13;6108159;23;20017;-81
2021/09/15 05:46:47;;;;;;;9.30;2.67;;;;;;;10.18;60.49;99127.78;6104653;23;20378;-82
2021/09/15 06:10:23;;;;;;;7.63;2.15;;;;;;;10.78;59.42;99156.25;5896135;24;20092;-82
2021/09/15 06:12:52;;;;;;;3.97;2.00;;;;;;;10.75;59.19;99151.22;5932671;24;20453;-87
2021/09/15 06:15:19;;;;;;;6.18;2.42;;;;;;;10.77;59.48;99151.09;5910667;24;20044;-82
2021/09/15 06:18:00;;;;;;;3.45;2.28;;;;;;;10.80;59.06;99151.69;5939851;24;20023;-85
2021/09/15 06:21:04;;;;;;;5.88;2.67;;;;;;;10.72;59.53;99162.06;5932803;24;20589;-82
2021/09/15 06:23:58;;;;;;;4.68;2.05;;;;;;;10.73;59.25;99160.25;5889836;24;20419;-82
2021/09/15 06:26:37;;;;;;;13.63;5.13;;;;;;;10.77;58.83;99157.22;5888500;24;20028;-84
2021/09/15 06:29:09;;;;;;;7.70;3.42;;;;;;;10.80;58.72;99167.56;5930777;24;20055;-82
2021/09/15 06:31:54;;;;;;;13.65;2.90;;;;;;;10.81;58.74;99166.56;5931566;24;20024;-83
2021/09/15 06:34:20;;;;;;;11.25;2.50;;;;;;;10.86;58.42;99162.69;5907552;24;20414;-81
2021/09/15 06:36:48;;;;;;;13.27;3.05;;;;;;;10.97;58.67;99171.34;5954075;24;20017;-85
2021/09/15 06:39:16;;;;;;;7.93;2.65;;;;;;;11.05;58.03;99168.03;5915316;24;20353;-84
2021/09/15 06:41:43;;;;;;;;;;;;;;;11.11;57.94;99175.44;5992161;23;20359;-81
2021/09/15 06:44:21;;;;;;;3.75;2.25;;;;;;;11.23;57.25;99162.13;6041268;23;19937;-86
2021/09/15 06:48:21;;;;;;;;;;;;;;;;;;;;;
2021/09/15 07:05:01;;;;;;;;;;;;;;;;;;;;;
2021/09/15 07:09:14;;;;;;;7.13;1.58;;;;;;;11.29;57.86;99188.03;5799100;24;20081;-84
2021/09/15 07:13:02;;;;;;;;;;;;;;;;;;;;;
2021/09/15 07:17:11;;;;;;;3.17;1.85;;;;;;;11.44;57.02;99186.69;5717249;25;20115;-85
2021/09/15 07:23:51;;;;;;;6.05;2.00;;;;;;;11.26;57.20;99194.44;5690674;25;20029;-83
2021/09/15 07:26:17;;;;;;;8.13;2.90;;;;;;;11.26;57.46;99191.78;5693897;25;20040;-82
2021/09/15 07:28:46;;;;;;;8.95;3.40;;;;;;;11.11;57.98;99190.50;5671184;25;20024;-81
2021/09/15 07:31:19;;;;;;;10.77;2.28;;;;;;;11.07;57.89;99179.34;5692542;25;20421;-86
2021/09/15 07:33:56;;;;;;;6.63;1.77;;;;;;;11.32;56.92;99177.19;5671278;25;20385;-82
2021/09/15 07:36:24;;;;;;;9.15;1.48;;;;;;;11.38;57.00;99174.00;5657688;25;20018;-83
2021/09/15 07:39:06;;;;;;;3.13;1.30;;;;;;;11.51;55.92;99183.50;5669475;25;20021;-84
2021/09/15 07:41:42;;;;;;;5.05;1.73;;;;;;;11.77;55.43;99176.69;5773692;24;20034;-83
2021/09/15 07:44:55;;;;;;;4.40;2.35;;;;;;;11.75;55.48;99188.41;5791611;24;20403;-82
2021/09/15 07:48:02;;;;;;;6.75;2.17;;;;;;;11.57;56.04;99190.91;5861772;24;20398;-81
2021/09/15 07:50:57;;;;;;;14.80;5.78;;;;;;;11.64;55.81;99200.81;5851042;24;20028;-83
2021/09/15 07:53:51;;;;;;;5.07;2.17;;;;;;;11.57;55.70;99198.84;5865776;24;20380;-85
2021/09/15 07:57:10;;;;;;;4.85;2.17;;;;;;;11.63;55.98;99209.72;5894128;24;20108;-82
2021/09/15 07:59:46;;;;;;;8.13;2.33;;;;;;;11.50;55.47;99217.06;5953671;23;20024;-83
2021/09/15 08:02:25;;;;;;;5.10;1.92;;;;;;;11.43;55.49;99203.53;5993603;24;20278;-85
2021/09/15 08:05:11;;;;;;;4.00;1.90;;;;;;;11.38;55.28;99218.19;5947312;24;20057;-86
2021/09/15 08:08:01;;;;;;;6.53;2.40;;;;;;;11.52;55.33;99215.13;5953773;23;20027;-85
2021/09/15 08:10:42;;;;;;;15.95;4.47;;;;;;;11.56;55.14;99226.31;6032298;23;20056;-82
2021/09/15 08:14:06;;;;;;;14.10;3.80;;;;;;;11.42;55.53;99228.34;6008304;23;20019;-82
2021/09/15 08:17:06;;;;;;;5.78;2.15;;;;;;;11.24;54.94;99240.53;5972971;24;20486;-82
2021/09/15 08:19:57;;;;;;;9.90;3.03;;;;;;;11.22;55.90;99235.41;5942345;24;20019;-82
2021/09/15 08:22:36;;;;;;;6.18;3.10;;;;;;;11.25;55.36;99239.56;5967064;24;20392;-84
2021/09/15 08:25:20;;;;;;;17.15;4.75;;;;;;;11.21;55.82;99238.19;5989025;24;20429;-81
2021/09/15 08:27:51;;;;;;;15.45;3.35;;;;;;;11.03;55.48;99244.09;5963292;24;20321;-83
2021/09/15 08:30:27;;;;;;;;;;;;;;;11.08;55.32;99247.19;5940988;24;20020;-83
2021/09/15 08:33:00;;;;;;;14.65;6.80;;;;;;;11.19;55.43;99240.97;5994608;23;19968;-84
2021/09/15 08:36:13;;;;;;;7.28;2.17;;;;;;;11.45;54.85;99251.94;6032127;23;20497;-83
2021/09/15 08:43:41;;;;;;;11.10;3.15;;;;;;;11.45;54.90;99256.38;5987972;24;20360;-83
2021/09/15 08:47:33;;;;;;;6.40;2.72;;;;;;;11.34;54.90;99265.28;5941362;24;20024;-84
2021/09/15 08:51:00;;;;;;;4.45;2.10;;;;;;;11.29;54.80;99260.38;5854375;24;20077;-82
2021/09/15 08:54:19;;;;;;;9.27;4.00;;;;;;;11.19;54.89;99271.88;5937610;24;20086;-82
2021/09/15 08:57:12;;;;;;;15.82;5.63;;;;;;;11.20;55.23;99270.91;5934437;24;20439;-84
2021/09/15 08:59:40;;;;;;;12.73;4.18;;;;;;;11.11;55.65;99275.19;5931038;24;20020;-83
2021/09/15 09:02:26;;;;;;;11.80;3.17;;;;;;;11.10;55.25;99273.50;5887462;24;20364;-87
2021/09/15 09:06:14;;;;;;;7.53;2.85;;;;;;;11.18;55.65;99273.69;5909272;24;20047;-83
2021/09/15 09:09:49;;;;;;;13.82;2.60;;;;;;;11.23;54.98;99282.06;5819185;24;20101;-83
2021/09/15 09:12:23;;;;;;;4.75;2.63;;;;;;;11.26;55.15;99275.69;5773514;24;20027;-83
2021/09/15 09:15:12;;;;;;;;;;;;;;;11.27;54.68;99280.00;5765140;24;20023;-85
2021/09/15 09:17:42;;;;;;;8.20;2.40;;;;;;;11.26;54.20;99296.84;5793542;24;19924;-85
2021/09/15 09:20:12;;;;;;;6.82;1.90;;;;;;;11.26;53.58;99295.03;5718419;25;20021;-82
2021/09/15 09:23:08;;;;;;;10.77;2.80;;;;;;;11.28;53.66;99297.56;5717742;25;20127;-85
2021/09/15 09:26:05;;;;;;;8.43;2.28;;;;;;;11.34;53.95;99299.69;5717693;25;20025;-85
2021/09/15 09:28:36;;;;;;;11.98;3.00;;;;;;;11.42;53.83;99289.25;5717835;25;20025;-85
2021/09/15 09:31:09;;;;;;;17.42;5.05;;;;;;;11.53;54.00;99309.50;5784123;24;20045;-83
2021/09/15 09:34:04;;;;;;;29.92;9.52;;;;;;;11.63;52.55;99304.25;5785752;24;20365;-84
2021/09/15 09:36:32;;;;;;;28.55;9.18;;;;;;;11.62;52.43;99306.03;5776348;24;20475;-86
2021/09/15 09:39:11;;;;;;;22.33;7.63;;;;;;;11.66;52.30;99296.03;5801243;24;20358;-84
2021/09/15 09:41:46;;;;;;;32.28;11.45;;;;;;;11.78;52.20;99305.53;5912314;24;20067;-83
2021/09/15 09:44:35;;;;;;;14.35;5.28;;;;;;;11.94;52.01;99305.03;5931623;24;20020;-85
2021/09/15 09:47:38;;;;;;;7.55;2.45;;;;;;;12.34;50.82;99298.00;5972882;23;20106;-85
2021/09/15 09:50:29;;;;;;;6.50;3.22;;;;;;;12.68;49.77;99302.84;5996501;23;20436;-85
2021/09/15 09:54:15;;;;;;;6.20;2.65;;;;;;;12.65;49.29;99300.50;5945938;23;20019;-86
2021/09/15 09:57:44;;;;;;;5.78;2.10;;;;;;;12.81;48.38;99307.03;5914385;24;20404;-82
2021/09/15 10:00:55;;;;;;;16.48;5.00;;;;;;;12.82;48.00;99309.53;5898794;24;20027;-84
2021/09/15 10:04:01;;;;;;;6.93;3.40;;;;;;;13.38;46.53;99294.63;5904359;24;20370;-84
2021/09/15 10:06:50;;;;;;;9.02;3.85;;;;;;;13.61;46.11;99304.03;5891113;24;20024;-84
2021/09/15 10:12:46;;;;;;;;;;;;;;;14.01;44.62;99306.31;5928674;24;20021;-85
2021/09/15 10:15:26;;;;;;;8.13;3.25;;;;;;;13.93;44.67;99308.88;5892027;24;20346;-84
2021/09/15 10:18:03;;;;;;;6.70;2.30;;;;;;;13.89;44.83;99312.84;5921844;24;20468;-83
2021/09/15 10:21:14;;;;;;;8.85;1.77;;;;;;;13.77;44.49;99314.88;5971059;24;20095;-86
2021/09/15 10:23:54;;;;;;;3.03;1.90;;;;;;;13.64;45.33;99319.69;5920640;24;20020;-84
2021/09/15 10:26:45;;;;;;;3.40;1.55;;;;;;;13.71;44.99;99318.13;5920999;24;20039;-85
2021/09/15 10:29:31;;;;;;;6.45;2.40;;;;;;;13.65;45.52;99318.72;5895825;24;20083;-84
2021/09/15 10:32:05;;;;;;;4.10;1.75;;;;;;;13.74;45.28;99316.00;5920769;24;20027;-83
2021/09/15 10:34:39;;;;;;;8.07;6.60;;;;;;;13.97;45.11;99315.59;5941047;24;20482;-83
2021/09/15 10:37:44;;;;;;;6.32;2.53;;;;;;;14.23;44.10;99321.03;5972160;24;20079;-82
2021/09/15 10:40:47;;;;;;;11.52;3.78;;;;;;;14.26;44.35;99322.53;5994387;24;20083;-82
2021/09/15 10:43:47;;;;;;;7.10;3.13;;;;;;;14.15;44.05;99323.59;5938135;24;20020;-86
2021/09/15 10:46:31;;;;;;;11.75;4.20;;;;;;;14.21;44.13;99324.81;5922317;24;20398;-83
2021/09/15 10:49:25;;;;;;;22.52;9.27;;;;;;;14.17;44.09;99332.25;5946835;23;20025;-82
2021/09/15 10:52:45;;;;;;;13.35;5.70;;;;;;;13.91;44.06;99340.13;6060404;23;20313;-82
2021/09/15 10:55:25;;;;;;;11.13;3.92;;;;;;;13.89;44.20;99332.31;6076101;23;20018;-84
2021/09/15 10:57:52;;;;;;;7.75;3.15;;;;;;;13.94;43.98;99337.16;6074855;23;20018;-84
2021/09/15 11:00:46;;;;;;;5.85;2.90;;;;;;;14.33;43.39;99341.38;6054122;23;20062;-84
2021/09/15 11:03:24;;;;;;;8.43;2.47;;;;;;;14.86;43.01;99342.41;6026212;23;20307;-83
2021/09/15 11:05:52;;;;;;;6.22;1.80;;;;;;;14.96;41.38;99348.47;6062016;23;20021;-83
2021/09/15 11:08:31;;;;;;;5.85;2.28;;;;;;;14.89;41.88;99344.75;6120195;23;20021;-82
2021/09/15 11:11:31;;;;;;;7.15;2.58;;;;;;;14.98;41.49;99351.81;6137144;23;20024;-85
2021/09/15 11:14:24;;;;;;;5.78;2.05;;;;;;;14.77;41.63;99338.00;6145828;23;20066;-85
2021/09/15 11:17:05;;;;;;;6.05;1.90;;;;;;;14.95;41.38;99344.13;6115729;23;20367;-82
2021/09/15 11:19:44;;;;;;;10.90;3.55;;;;;;;14.96;41.58;99337.00;6095999;23;20290;-83
2021/09/15 11:23:01;;;;;;;8.52;2.10;;;;;;;15.37;40.55;99335.41;6098605;23;20020;-85
2021/09/15 11:25:48;;;;;;;3.25;1.65;;;;;;;15.84;39.24;99326.16;6068605;23;20368;-83
2021/09/15 11:28:35;;;;;;;3.67;1.70;;;;;;;16.51;38.42;99335.19;6082195;23;20093;-85
2021/09/15 11:31:40;;;;;;;6.97;2.50;;;;;;;17.38;36.66;99328.44;6071076;23;20021;-82
2021/09/15 11:34:27;;;;;;;5.57;1.88;;;;;;;16.88;36.86;99331.16;6081874;23;20018;-83
2021/09/15 11:44:46;;;;;;;6.35;1.88;;;;;;;15.71;37.41;99341.75;6098030;23;20010;-83
2021/09/15 11:47:42;;;;;;;4.80;1.90;;;;;;;15.37;38.44;99340.75;6027213;23;20030;-84
2021/09/15 11:54:14;;;;;;;4.93;1.75;;;;;;;15.24;39.02;99337.69;6097085;23;20353;-82
2021/09/15 11:56:45;;;;;;;4.60;1.65;;;;;;;15.11;38.91;99334.59;6076626;23;20018;-83
2021/09/15 11:59:12;;;;;;;6.65;3.78;;;;;;;14.91;39.27;99342.78;6098607;23;20438;-84
2021/09/15 12:01:41;;;;;;;11.30;4.40;;;;;;;14.74;39.62;99340.97;6077521;23;20093;-85
2021/09/15 12:04:10;;;;;;;3.30;1.70;;;;;;;14.58;39.71;99342.47;6052651;23;20028;-84
2021/09/15 12:07:39;;;;;;;6.45;1.92;;;;;;;14.42;39.92;99351.13;6052540;23;20018;-82
2021/09/15 12:10:44;;;;;;;5.90;2.20;;;;;;;14.29;40.31;99338.19;6006988;23;20355;-83
2021/09/15 12:14:10;;;;;;;7.72;2.33;;;;;;;14.15;40.16;99336.06;5964737;23;20399;-81
2021/09/15 12:17:25;;;;;;;10.35;2.53;;;;;;;13.89;40.41;99342.94;6007607;23;20023;-80
2021/09/15 12:20:44;;;;;;;5.18;1.88;;;;;;;13.93;40.64;99351.44;5974523;23;20405;-81
2021/09/15 12:28:30;;;;;;;6.43;2.05;;;;;;;13.95;40.66;99338.84;5880429;24;20052;-82
2021/09/15 12:31:47;;;;;;;6.40;1.88;;;;;;;13.96;40.56;99332.53;5879742;24;20465;-82
2021/09/15 12:34:27;;;;;;;5.50;2.53;;;;;;;14.05;40.21;99333.47;5833350;24;20022;-81
2021/09/15 12:37:24;;;;;;;8.02;2.00;;;;;;;14.29;39.60;99335.53;5833419;24;20024;-82
2021/09/15 12:40:03;;;;;;;6.10;2.60;;;;;;;14.74;39.02;99330.31;5809908;24;20026;-83
2021/09/15 12:43:13;;;;;;;7.57;2.65;;;;;;;14.84;38.78;99317.75;5926273;24;20440;-81
2021/09/15 12:49:36;;;;;;;12.35;3.95;;;;;;;14.66;38.72;99320.44;5940337;24;20364;-85
2021/09/15 12:52:41;;;;;;;8.75;4.25;;;;;;;14.71;38.77;99329.63;5935629;24;20349;-83
2021/09/15 12:59:30;;;;;;;9.30;2.30;;;;;;;14.88;38.38;99335.09;6040526;23;20366;-82
2021/09/15 13:02:25;;;;;;;6.15;2.53;;;;;;;14.93;38.00;99337.28;6013000;23;20019;-84
2021/09/15 13:10:02;;;;;;;9.02;3.05;;;;;;;15.02;37.70;99321.22;6020455;23;20061;-83
2021/09/15 13:30:47;;;;;;;3.90;1.45;;;;;;;14.71;37.56;99350.91;5873935;24;20428;-83
2021/09/15 13:34:31;;;;;;;25.30;15.75;;;;;;;14.47;38.05;99348.03;5862560;24;20053;-86
2021/09/15 13:36:59;;;;;;;12.85;2.20;;;;;;;14.37;38.18;99343.59;5843748;24;20081;-84
2021/09/15 13:39:59;;;;;;;5.35;1.80;;;;;;;14.30;38.22;99345.19;5828077;24;20090;-84
2021/09/15 13:43:59;;;;;;;8.20;1.92;;;;;;;14.05;37.47;99346.75;5852311;24;20052;-84
2021/09/15 13:53:52;;;;;;;7.03;1.98;;;;;;;13.71;38.83;99358.81;5892328;24;20037;-84
2021/09/15 13:56:20;;;;;;;4.93;2.45;;;;;;;13.66;39.03;99355.75;5922721;24;20047;-83
2021/09/15 13:58:50;;;;;;;7.63;2.30;;;;;;;13.78;39.33;99364.38;5980267;23;20336;-83
2021/09/15 14:01:18;;;;;;;7.40;3.20;;;;;;;13.61;39.46;99366.00;5967571;23;20384;-86
2021/09/15 14:03:48;;;;;;;11.90;3.85;;;;;;;13.57;39.67;99364.59;5990516;23;20043;-82
2021/09/15 14:06:15;;;;;;;7.03;2.33;;;;;;;13.65;40.04;99367.38;5966601;23;20419;-82
2021/09/15 14:08:42;;;;;;;8.88;3.08;;;;;;;13.59;39.94;99374.13;5964134;23;20020;-85
2021/09/15 14:11:13;;;;;;;8.70;2.40;;;;;;;13.57;40.45;99375.22;5965761;23;20506;-84
2021/09/15 14:13:47;;;;;;;24.67;9.18;;;;;;;13.51;40.52;99373.19;5942618;23;20086;-84
2021/09/15 14:16:27;;;;;;;3.90;1.75;;;;;;;13.52;40.65;99382.78;5943771;23;20072;-82
2021/09/15 14:19:32;;;;;;;6.63;1.90;;;;;;;13.64;40.63;99384.28;5986461;23;20038;-82
2021/09/15 14:22:27;;;;;;;8.13;2.10;;;;;;;13.55;40.39;99380.69;5995076;23;20415;-83
2021/09/15 14:25:00;;;;;;;6.68;1.70;;;;;;;13.53;39.88;99392.44;6026097;23;20090;-82
2021/09/15 14:27:45;;;;;;;8.00;2.08;;;;;;;13.46;39.80;99401.97;6030297;23;20022;-83
2021/09/15 14:30:16;;;;;;;4.93;1.92;;;;;;;13.35;39.84;99385.19;6049322;23;20026;-83
2021/09/15 14:33:05;;;;;;;8.25;4.22;;;;;;;13.38;39.93;99400.88;6029896;23;20049;-80
2021/09/15 14:35:40;;;;;;;10.85;3.22;;;;;;;13.32;39.94;99392.59;6020978;23;20025;-81
2021/09/15 14:38:07;;;;;;;8.88;3.40;;;;;;;13.26;40.43;99396.69;6020796;23;20086;-83
2021/09/15 14:40:59;;;;;;;4.47;2.10;;;;;;;13.29;40.70;99395.56;6050959;23;20019;-83
2021/09/15 14:43:36;;;;;;;7.07;2.65;;;;;;;13.16;40.57;99403.81;6046446;23;20423;-87
2021/09/15 14:46:17;;;;;;;13.57;3.38;;;;;;;13.11;41.74;99407.75;6003052;23;20348;-85
2021/09/15 14:48:52;;;;;;;13.35;3.70;;;;;;;13.12;41.70;99400.59;6047592;23;20046;-83
2021/09/15 14:51:37;;;;;;;5.22;2.30;;;;;;;13.07;41.63;99401.03;6022855;23;20366;-82